createdAt,value
2022-08-03T00:00:58.704Z,9.309131
2022-08-03T00:01:58.721Z,9.309271
2022-08-03T00:02:58.776Z,9.309116
2022-08-03T00:03:58.740Z,9.309115
2022-08-03T00:04:58.710Z,9.309032
2022-08-03T00:06:04.452Z,9.309152
2022-08-03T00:06:59.719Z,9.309140
2022-08-03T00:07:58.653Z,9.309135
2022-08-03T00:08:58.710Z,9.309132
2022-08-03T00:09:58.950Z,9.309076
2022-08-03T00:10:58.677Z,9.309048
2022-08-03T00:11:58.647Z,9.309128
2022-08-03T00:12:58.711Z,9.309134
2022-08-03T00:13:58.622Z,9.309155
2022-08-03T00:14:58.654Z,9.309132
2022-08-03T00:15:58.605Z,9.309140
2022-08-03T00:16:58.591Z,9.309033
2022-08-03T00:17:58.608Z,9.309043
2022-08-03T00:18:58.499Z,9.309017
2022-08-03T00:19:58.527Z,9.308956
2022-08-03T00:20:58.543Z,9.308986
2022-08-03T00:21:58.510Z,9.309044
2022-08-03T00:22:58.477Z,9.309078
2022-08-03T00:23:58.473Z,9.309056
2022-08-03T00:24:58.476Z,9.309060
2022-08-03T00:25:58.513Z,9.309048
2022-08-03T00:26:58.444Z,9.309073
2022-08-03T00:27:58.458Z,9.309087
2022-08-03T00:28:58.416Z,9.309052
2022-08-03T00:30:00.403Z,9.309039
2022-08-03T00:30:58.447Z,9.309038
2022-08-03T00:31:59.350Z,9.309057
2022-08-03T00:32:58.520Z,9.309069
2022-08-03T00:33:59.674Z,9.309154
2022-08-03T00:34:59.174Z,9.309097
2022-08-03T00:35:58.588Z,9.309143
2022-08-03T00:36:58.535Z,9.309113
2022-08-03T00:37:58.474Z,9.309034
2022-08-03T00:38:58.471Z,9.309042
2022-08-03T00:39:59.908Z,9.309026
2022-08-03T00:40:58.458Z,9.309070
2022-08-03T00:41:58.332Z,9.309039
2022-08-03T00:42:58.488Z,9.309008
2022-08-03T00:43:58.445Z,9.309060
2022-08-03T00:44:59.421Z,9.309095
2022-08-03T00:45:58.428Z,9.309078
2022-08-03T00:46:58.421Z,9.309073
2022-08-03T00:47:58.471Z,9.309085
2022-08-03T00:48:58.439Z,9.309097
2022-08-03T00:49:58.372Z,9.309061
2022-08-03T00:50:58.413Z,9.309102
2022-08-03T00:51:58.364Z,9.309094
2022-08-03T00:52:58.367Z,9.309084
2022-08-03T00:53:58.442Z,9.309138
2022-08-03T00:54:58.388Z,9.309116
2022-08-03T00:55:58.321Z,9.309051
2022-08-03T00:56:59.461Z,9.309175
2022-08-03T00:57:58.308Z,9.309112
2022-08-03T00:58:58.370Z,9.309064
2022-08-03T00:59:58.295Z,9.309078
2022-08-03T01:00:58.352Z,9.309148
2022-08-03T01:01:58.298Z,9.309143
2022-08-03T01:02:58.309Z,9.309084
2022-08-03T01:03:58.316Z,9.309122
2022-08-03T01:04:58.357Z,9.309139
2022-08-03T01:05:58.316Z,9.309114
2022-08-03T01:06:58.263Z,9.309085
2022-08-03T01:07:58.241Z,9.309081
2022-08-03T01:08:58.256Z,9.309143
2022-08-03T01:09:58.433Z,9.309216
2022-08-03T01:10:58.245Z,9.309136
2022-08-03T01:12:01.158Z,9.309178
2022-08-03T01:12:58.194Z,9.309151
2022-08-03T01:14:04.267Z,9.309163
2022-08-03T01:14:59.260Z,9.309115
2022-08-03T01:15:58.233Z,9.309131
2022-08-03T01:16:58.875Z,9.309113
2022-08-03T01:17:58.247Z,9.309155
2022-08-03T01:18:58.061Z,9.309132
2022-08-03T01:19:58.141Z,9.309199
2022-08-03T01:20:58.111Z,9.309191
2022-08-03T01:21:58.064Z,9.309097
2022-08-03T01:22:58.060Z,9.309134
2022-08-03T01:23:58.065Z,9.309131
2022-08-03T01:24:58.014Z,9.309168
2022-08-03T01:25:58.058Z,9.309245
2022-08-03T01:26:58.031Z,9.309216
2022-08-03T01:27:58.012Z,9.309160
2022-08-03T01:28:58.112Z,9.309143
2022-08-03T01:29:58.102Z,9.309123
2022-08-03T01:30:58.113Z,9.309131
2022-08-03T01:32:54.510Z,9.309123
2022-08-03T01:33:01.796Z,9.309150
2022-08-03T01:33:57.959Z,9.309190
2022-08-03T01:34:58.056Z,9.309077
2022-08-03T01:35:58.050Z,9.309117
2022-08-03T01:36:58.096Z,9.309140
2022-08-03T01:37:58.074Z,9.309132
2022-08-03T01:38:58.114Z,9.309200
2022-08-03T01:39:58.015Z,9.309197
2022-08-03T01:40:58.066Z,9.309197
2022-08-03T01:41:57.956Z,9.309197
2022-08-03T01:42:58.065Z,9.309178
2022-08-03T01:44:27.324Z,9.309109
2022-08-03T01:44:58.900Z,9.309136
2022-08-03T01:45:57.992Z,9.309233
2022-08-03T01:46:58.030Z,9.309170
2022-08-03T01:47:57.937Z,9.309145
2022-08-03T01:48:58.016Z,9.309116
2022-08-03T01:49:57.982Z,9.309187
2022-08-03T01:50:57.928Z,9.309236
2022-08-03T01:52:03.998Z,9.309119
2022-08-03T01:52:59.023Z,9.309105
2022-08-03T01:53:57.913Z,9.309065
2022-08-03T01:54:57.907Z,9.309133
2022-08-03T01:55:57.889Z,9.309154
2022-08-03T01:56:57.888Z,9.309188
2022-08-03T01:58:05.282Z,9.309098
2022-08-03T01:58:58.891Z,9.309115
2022-08-03T01:59:57.945Z,9.309016
2022-08-03T02:00:57.895Z,9.309102
2022-08-03T02:02:19.573Z,9.309049
2022-08-03T02:02:58.802Z,9.309102
2022-08-03T02:04:00.150Z,9.309215
2022-08-03T02:04:57.840Z,9.309096
2022-08-03T02:06:18.147Z,9.309134
2022-08-03T02:07:03.107Z,9.309089
2022-08-03T02:07:57.767Z,9.309106
2022-08-03T02:08:58.802Z,9.309202
2022-08-03T02:09:57.780Z,9.309231
2022-08-03T02:10:57.819Z,9.309237
2022-08-03T02:11:57.760Z,9.309253
2022-08-03T02:12:57.736Z,9.309241
2022-08-03T02:13:57.824Z,9.309194
2022-08-03T02:14:57.773Z,9.309167
2022-08-03T02:15:57.756Z,9.309189
2022-08-03T02:16:57.680Z,9.309180
2022-08-03T02:17:57.661Z,9.309131
2022-08-03T02:18:57.609Z,9.309208
2022-08-03T02:19:57.663Z,9.309214
2022-08-03T02:20:57.625Z,9.309267
2022-08-03T02:22:01.353Z,9.309183
2022-08-03T02:22:58.615Z,9.309197
2022-08-03T02:23:57.600Z,9.309122
2022-08-03T02:24:57.591Z,9.309223
2022-08-03T02:25:57.554Z,9.309252
2022-08-03T02:26:57.600Z,9.309164
2022-08-03T02:27:57.609Z,9.309139
2022-08-03T02:28:57.569Z,9.309166
2022-08-03T02:29:57.550Z,9.309207
2022-08-03T02:30:57.702Z,9.309193
2022-08-03T02:31:57.663Z,9.309044
2022-08-03T02:32:57.612Z,9.309183
2022-08-03T02:33:57.634Z,9.309165
2022-08-03T02:34:57.604Z,9.309155
2022-08-03T02:35:57.627Z,9.309258
2022-08-03T02:36:57.583Z,9.309219
2022-08-03T02:37:57.614Z,9.309232
2022-08-03T02:38:57.582Z,9.309106
2022-08-03T02:39:57.585Z,9.309056
2022-08-03T02:40:57.592Z,9.309036
2022-08-03T02:41:57.515Z,9.309085
2022-08-03T02:42:57.568Z,9.309140
2022-08-03T02:44:06.223Z,9.309115
2022-08-03T02:44:58.450Z,9.309141
2022-08-03T02:45:57.573Z,9.309142
2022-08-03T02:46:57.550Z,9.309118
2022-08-03T02:47:57.593Z,9.309110
2022-08-03T02:48:57.556Z,9.309107
2022-08-03T02:49:57.515Z,9.309088
2022-08-03T02:50:57.489Z,9.309101
2022-08-03T02:51:57.469Z,9.309121
2022-08-03T02:52:57.509Z,9.309174
2022-08-03T02:53:57.460Z,9.309157
2022-08-03T02:54:57.484Z,9.309154
2022-08-03T02:55:57.466Z,9.309157
2022-08-03T02:56:57.439Z,9.309145
2022-08-03T02:57:57.465Z,9.309094
2022-08-03T02:58:57.457Z,9.309087
2022-08-03T02:59:57.404Z,9.309055
2022-08-03T03:00:57.503Z,9.309083
2022-08-03T03:01:57.419Z,9.309090
2022-08-03T03:02:57.411Z,9.309109
2022-08-03T03:03:57.423Z,9.309168
2022-08-03T03:05:52.011Z,9.309159
2022-08-03T03:05:59.707Z,9.309133
2022-08-03T03:06:58.378Z,9.309117
2022-08-03T03:07:57.287Z,9.309121
2022-08-03T03:08:59.787Z,9.309116
2022-08-03T03:09:58.271Z,9.309128
2022-08-03T03:10:57.252Z,9.309098
2022-08-03T03:11:57.269Z,9.309113
2022-08-03T03:12:57.238Z,9.309110
2022-08-03T03:13:57.257Z,9.309119
2022-08-03T03:14:57.669Z,9.309150
2022-08-03T03:15:57.231Z,9.309139
2022-08-03T03:16:57.848Z,9.309106
2022-08-03T03:17:57.345Z,9.309080
2022-08-03T03:18:57.287Z,9.309119
2022-08-03T03:19:57.333Z,9.309111
2022-08-03T03:20:57.260Z,9.309108
2022-08-03T03:21:57.291Z,9.309107
2022-08-03T03:22:57.268Z,9.309098
2022-08-03T03:23:57.239Z,9.309062
2022-08-03T03:24:57.223Z,9.309045
2022-08-03T03:25:57.313Z,9.309086
2022-08-03T03:26:57.277Z,9.309073
2022-08-03T03:27:57.724Z,9.309069
2022-08-03T03:28:57.206Z,9.309088
2022-08-03T03:29:57.233Z,9.309042
2022-08-03T03:30:57.223Z,9.309052
2022-08-03T03:31:57.237Z,9.309039
2022-08-03T03:32:57.219Z,9.309075
2022-08-03T03:33:57.179Z,9.309076
2022-08-03T03:34:57.154Z,9.309073
2022-08-03T03:35:57.177Z,9.309072
2022-08-03T03:36:57.175Z,9.309068
2022-08-03T03:37:57.140Z,9.309063
2022-08-03T03:38:57.138Z,9.309052
2022-08-03T03:39:57.172Z,9.309047
2022-08-03T03:40:57.119Z,9.309095
2022-08-03T03:41:57.146Z,9.309070
2022-08-03T03:42:57.090Z,9.309091
2022-08-03T03:43:58.081Z,9.309058
2022-08-03T03:44:57.117Z,9.308988
2022-08-03T03:45:57.094Z,9.308985
2022-08-03T03:46:57.092Z,9.308904
2022-08-03T03:47:57.148Z,9.309110
2022-08-03T03:48:57.091Z,9.309014
2022-08-03T03:49:56.964Z,9.309052
2022-08-03T03:50:56.949Z,9.309027
2022-08-03T03:51:56.982Z,9.308967
2022-08-03T03:52:57.034Z,9.308916
2022-08-03T03:53:56.912Z,9.309005
2022-08-03T03:55:00.784Z,9.309023
2022-08-03T03:56:02.009Z,9.309084
2022-08-03T03:56:56.923Z,9.309037
2022-08-03T03:57:56.924Z,9.308958
2022-08-03T03:58:56.941Z,9.308995
2022-08-03T03:59:56.876Z,9.308989
2022-08-03T04:00:56.958Z,9.309044
2022-08-03T04:01:59.185Z,9.309052
2022-08-03T04:02:56.854Z,9.309132
2022-08-03T04:03:57.042Z,9.309016
2022-08-03T04:04:56.975Z,9.309043
2022-08-03T04:05:56.957Z,9.309094
2022-08-03T04:06:56.959Z,9.309068
2022-08-03T04:07:56.912Z,9.309065
2022-08-03T04:08:56.938Z,9.309064
2022-08-03T04:09:56.966Z,9.309090
2022-08-03T04:10:56.942Z,9.309117
2022-08-03T04:11:56.946Z,9.309150
2022-08-03T04:12:56.880Z,9.309015
2022-08-03T04:13:56.914Z,9.309031
2022-08-03T04:14:57.984Z,9.309017
2022-08-03T04:15:56.951Z,9.309031
2022-08-03T04:16:56.889Z,9.309071
2022-08-03T04:17:56.853Z,9.309091
2022-08-03T04:18:56.818Z,9.308986
2022-08-03T04:19:56.831Z,9.309031
2022-08-03T04:20:56.874Z,9.309070
2022-08-03T04:21:56.967Z,9.309069
2022-08-03T04:22:56.800Z,9.309048
2022-08-03T04:23:56.784Z,9.309124
2022-08-03T04:24:56.791Z,9.309051
2022-08-03T04:25:56.824Z,9.309089
2022-08-03T04:26:56.794Z,9.309034
2022-08-03T04:28:29.383Z,9.309103
2022-08-03T04:28:57.768Z,9.309052
2022-08-03T04:29:56.791Z,9.309094
2022-08-03T04:30:56.755Z,9.309059
2022-08-03T04:31:56.825Z,9.309013
2022-08-03T04:32:56.767Z,9.309002
2022-08-03T04:33:56.725Z,9.308984
2022-08-03T04:34:56.788Z,9.309013
2022-08-03T04:36:01.033Z,9.309031
2022-08-03T04:36:57.783Z,9.309015
2022-08-03T04:37:56.680Z,9.308990
2022-08-03T04:38:56.710Z,9.309058
2022-08-03T04:39:56.946Z,9.309044
2022-08-03T04:40:56.700Z,9.309047
2022-08-03T04:42:06.981Z,9.309059
2022-08-03T04:42:57.693Z,9.309017
2022-08-03T04:43:56.625Z,9.309035
2022-08-03T04:45:01.012Z,9.309057
2022-08-03T04:45:57.630Z,9.309033
2022-08-03T04:46:56.612Z,9.309088
2022-08-03T04:47:56.666Z,9.309080
2022-08-03T04:48:56.653Z,9.308984
2022-08-03T04:49:56.613Z,9.309026
2022-08-03T04:50:56.621Z,9.309138
2022-08-03T04:51:56.588Z,9.309076
2022-08-03T04:52:56.568Z,9.309012
2022-08-03T04:53:56.652Z,9.308958
2022-08-03T04:54:56.486Z,9.308840
2022-08-03T04:55:56.498Z,9.308945
2022-08-03T04:56:56.493Z,9.308962
2022-08-03T04:57:56.504Z,9.309004
2022-08-03T04:58:56.475Z,9.309023
2022-08-03T05:00:02.172Z,9.309029
2022-08-03T05:00:58.483Z,9.308978
2022-08-03T05:01:56.523Z,9.308933
2022-08-03T05:02:56.446Z,9.308934
2022-08-03T05:03:56.409Z,9.308954
2022-08-03T05:04:56.462Z,9.308968
2022-08-03T05:06:09.412Z,9.309019
2022-08-03T05:06:57.411Z,9.309086
2022-08-03T05:07:56.390Z,9.309027
2022-08-03T05:08:56.464Z,9.309072
2022-08-03T05:10:01.333Z,9.309053
2022-08-03T05:10:59.124Z,9.309029
2022-08-03T05:11:56.375Z,9.309022
2022-08-03T05:12:56.455Z,9.309033
2022-08-03T05:13:56.438Z,9.309005
2022-08-03T05:14:56.465Z,9.309090
2022-08-03T05:15:56.498Z,9.309077
2022-08-03T05:16:56.457Z,9.309073
2022-08-03T05:17:56.448Z,9.309116
2022-08-03T05:18:56.435Z,9.309155
2022-08-03T05:19:56.421Z,9.309060
2022-08-03T05:20:56.452Z,9.309046
2022-08-03T05:21:56.372Z,9.309013
2022-08-03T05:22:56.360Z,9.308999
2022-08-03T05:23:56.346Z,9.309021
2022-08-03T05:24:56.376Z,9.309013
2022-08-03T05:25:56.401Z,9.309065
2022-08-03T05:26:56.409Z,9.309072
2022-08-03T05:27:56.323Z,9.309120
2022-08-03T05:28:56.367Z,9.309095
2022-08-03T05:29:56.317Z,9.309058
2022-08-03T05:30:58.264Z,9.309007
2022-08-03T05:31:56.345Z,9.309002
2022-08-03T05:32:56.309Z,9.308966
2022-08-03T05:33:56.348Z,9.308940
2022-08-03T05:34:56.319Z,9.308999
2022-08-03T05:36:02.769Z,9.309023
2022-08-03T05:36:58.369Z,9.308963
2022-08-03T05:37:56.277Z,9.308917
2022-08-03T05:39:00.838Z,9.308980
2022-08-03T05:39:58.296Z,9.308946
2022-08-03T05:40:57.315Z,9.308950
2022-08-03T05:41:56.313Z,9.308928
2022-08-03T05:42:56.297Z,9.308961
2022-08-03T05:43:56.304Z,9.308928
2022-08-03T05:44:56.230Z,9.308962
2022-08-03T05:46:12.472Z,9.308992
2022-08-03T05:46:57.253Z,9.308985
2022-08-03T05:47:56.289Z,9.308952
2022-08-03T05:48:56.236Z,9.308960
2022-08-03T05:49:56.221Z,9.308943
2022-08-03T05:50:56.217Z,9.308869
2022-08-03T05:52:07.969Z,9.308875
2022-08-03T05:52:57.204Z,9.308969
2022-08-03T05:53:56.171Z,9.308939
2022-08-03T05:54:57.719Z,9.308872
2022-08-03T05:55:59.310Z,9.308863
2022-08-03T05:56:58.155Z,9.308883
2022-08-03T05:57:56.833Z,9.308945
2022-08-03T05:58:56.180Z,9.308930
2022-08-03T05:59:58.542Z,9.308932
2022-08-03T06:00:56.156Z,9.308965
2022-08-03T06:01:56.177Z,9.308977
2022-08-03T06:02:56.007Z,9.309050
2022-08-03T06:03:56.021Z,9.309042
2022-08-03T06:04:56.025Z,9.308966
2022-08-03T06:06:00.313Z,9.308966
2022-08-03T06:06:55.986Z,9.309057
2022-08-03T06:07:55.993Z,9.309006
2022-08-03T06:08:55.993Z,9.308982
2022-08-03T06:10:34.927Z,9.308994
2022-08-03T06:10:56.967Z,9.308938
2022-08-03T06:11:55.920Z,9.308962
2022-08-03T06:12:55.926Z,9.308941
2022-08-03T06:13:55.942Z,9.309002
2022-08-03T06:14:55.954Z,9.309011
2022-08-03T06:15:56.071Z,9.309000
2022-08-03T06:16:55.917Z,9.309024
2022-08-03T06:17:58.738Z,9.309000
2022-08-03T06:18:57.949Z,9.308971
2022-08-03T06:19:55.919Z,9.309065
2022-08-03T06:20:56.287Z,9.309070
2022-08-03T06:21:55.854Z,9.308991
2022-08-03T06:23:00.455Z,9.308941
2022-08-03T06:23:56.848Z,9.309064
2022-08-03T06:24:55.910Z,9.309056
2022-08-03T06:25:55.918Z,9.309066
2022-08-03T06:26:55.885Z,9.309135
2022-08-03T06:27:55.896Z,9.309098
2022-08-03T06:28:55.882Z,9.309142
2022-08-03T06:29:55.890Z,9.309134
2022-08-03T06:30:55.875Z,9.309124
2022-08-03T06:31:55.881Z,9.309122
2022-08-03T06:32:55.877Z,9.309052
2022-08-03T06:34:34.225Z,9.309146
2022-08-03T06:34:56.820Z,9.309064
2022-08-03T06:35:55.855Z,9.309082
2022-08-03T06:37:01.662Z,9.309062
2022-08-03T06:37:57.786Z,9.308968
2022-08-03T06:38:55.855Z,9.308942
2022-08-03T06:39:55.879Z,9.309119
2022-08-03T06:40:55.842Z,9.309058
2022-08-03T06:41:55.858Z,9.308987
2022-08-03T06:42:55.858Z,9.309007
2022-08-03T06:44:03.259Z,9.309140
2022-08-03T06:44:56.747Z,9.309097
2022-08-03T06:45:55.786Z,9.309143
2022-08-03T06:46:55.902Z,9.309132
2022-08-03T06:47:55.744Z,9.309117
2022-08-03T06:48:55.886Z,9.309038
2022-08-03T06:50:12.822Z,9.309039
2022-08-03T06:50:56.672Z,9.309118
2022-08-03T06:52:04.118Z,9.309128
2022-08-03T06:52:56.703Z,9.309091
2022-08-03T06:53:55.734Z,9.309097
2022-08-03T06:54:55.734Z,9.309104
2022-08-03T06:55:55.751Z,9.309095
2022-08-03T06:56:55.772Z,9.309098
2022-08-03T06:57:55.733Z,9.309094
2022-08-03T06:58:55.687Z,9.309075
2022-08-03T07:00:08.022Z,9.309026
2022-08-03T07:00:56.724Z,9.309103
2022-08-03T07:01:55.745Z,9.309121
2022-08-03T07:02:58.245Z,9.309084
2022-08-03T07:03:56.729Z,9.309092
2022-08-03T07:04:55.636Z,9.309115
2022-08-03T07:05:55.668Z,9.309087
2022-08-03T07:06:55.636Z,9.309134
2022-08-03T07:07:55.642Z,9.309131
2022-08-03T07:08:59.400Z,9.309196
2022-08-03T07:09:58.175Z,9.309157
2022-08-03T07:10:55.583Z,9.309080
2022-08-03T07:11:55.620Z,9.309080
2022-08-03T07:12:56.586Z,9.309092
2022-08-03T07:13:55.599Z,9.309143
2022-08-03T07:14:59.978Z,9.309115
2022-08-03T07:15:57.636Z,9.309112
2022-08-03T07:16:55.548Z,9.309050
2022-08-03T07:17:55.473Z,9.309053
2022-08-03T07:18:55.440Z,9.309115
2022-08-03T07:19:55.498Z,9.309090
2022-08-03T07:20:55.460Z,9.309087
2022-08-03T07:21:55.471Z,9.309111
2022-08-03T07:22:56.453Z,9.309090
2022-08-03T07:23:55.420Z,9.309066
2022-08-03T07:24:55.422Z,9.309060
2022-08-03T07:25:55.696Z,9.309052
2022-08-03T07:26:55.412Z,9.309045
2022-08-03T07:27:55.399Z,9.309032
2022-08-03T07:28:55.391Z,9.309073
2022-08-03T07:29:55.517Z,9.309093
2022-08-03T07:30:55.406Z,9.309114
2022-08-03T07:31:55.365Z,9.309083
2022-08-03T07:32:55.364Z,9.309084
2022-08-03T07:33:55.406Z,9.309031
2022-08-03T07:35:00.160Z,9.309112
2022-08-03T07:35:57.408Z,9.308968
2022-08-03T07:36:55.366Z,9.309001
2022-08-03T07:37:55.434Z,9.309051
2022-08-03T07:38:55.556Z,9.309089
2022-08-03T07:39:55.394Z,9.309031
2022-08-03T07:40:55.394Z,9.309042
2022-08-03T07:41:55.479Z,9.308997
2022-08-03T07:42:55.372Z,9.309011
2022-08-03T07:43:55.407Z,9.309018
2022-08-03T07:44:55.383Z,9.309034
2022-08-03T07:45:55.378Z,9.308994
2022-08-03T07:46:55.444Z,9.308934
2022-08-03T07:47:55.422Z,9.309000
2022-08-03T07:48:55.428Z,9.309102
2022-08-03T07:49:55.435Z,9.309017
2022-08-03T07:50:55.409Z,9.309100
2022-08-03T07:51:55.373Z,9.309116
2022-08-03T07:52:55.329Z,9.309072
2022-08-03T07:53:55.380Z,9.309006
2022-08-03T07:54:55.369Z,9.308967
2022-08-03T07:55:55.383Z,9.308972
2022-08-03T07:56:55.309Z,9.308965
2022-08-03T07:57:55.674Z,9.308961
2022-08-03T07:58:55.293Z,9.309003
2022-08-03T08:00:01.790Z,9.309039
2022-08-03T08:00:56.337Z,9.309059
2022-08-03T08:01:55.282Z,9.309078
2022-08-03T08:02:55.229Z,9.309122
2022-08-03T08:03:55.286Z,9.309061
2022-08-03T08:04:55.451Z,9.309111
2022-08-03T08:05:55.256Z,9.309084
2022-08-03T08:06:55.238Z,9.309124
2022-08-03T08:07:55.258Z,9.309088
2022-08-03T08:08:55.220Z,9.309130
2022-08-03T08:09:55.201Z,9.309111
2022-08-03T08:10:56.897Z,9.309093
2022-08-03T11:07:06.862Z,9.308951
2022-08-03T11:08:06.906Z,9.309075
2022-08-03T11:09:06.895Z,9.309051
2022-08-03T11:10:10.488Z,9.309068
2022-08-03T11:11:07.905Z,9.309103
2022-08-03T11:12:06.888Z,9.309082
2022-08-03T11:13:06.801Z,9.309141
2022-08-03T11:14:06.851Z,9.309049
2022-08-03T11:15:06.985Z,9.309010
2022-08-03T11:16:10.918Z,9.309020
2022-08-03T11:17:14.084Z,9.308990
2022-08-03T11:18:07.764Z,9.308975
2022-08-03T11:19:06.766Z,9.308999
2022-08-03T11:20:06.741Z,9.309027
2022-08-03T11:21:06.789Z,9.309109
2022-08-03T11:22:06.773Z,9.309141
2022-08-03T11:23:06.725Z,9.309081
2022-08-03T11:24:06.994Z,9.309103
2022-08-03T11:25:07.769Z,9.309178
2022-08-03T11:26:06.736Z,9.309010
2022-08-03T11:27:06.731Z,9.309048
2022-08-03T11:28:06.734Z,9.309081
2022-08-03T11:29:06.714Z,9.309093
2022-08-03T11:30:06.713Z,9.309040
2022-08-03T11:31:06.758Z,9.309027
2022-08-03T11:32:06.693Z,9.309172
2022-08-03T11:33:06.779Z,9.309101
2022-08-03T11:34:06.637Z,9.309057
2022-08-03T11:35:06.713Z,9.309049
2022-08-03T11:36:06.633Z,9.309120
2022-08-03T11:37:06.640Z,9.309069
2022-08-03T11:38:06.695Z,9.309101
2022-08-03T11:39:06.607Z,9.309114
2022-08-03T11:40:06.618Z,9.308991
2022-08-03T11:41:06.581Z,9.308959
2022-08-03T11:42:06.580Z,9.308975
2022-08-03T11:43:06.612Z,9.308989
2022-08-03T11:44:06.670Z,9.308939
2022-08-03T11:45:06.562Z,9.308972
2022-08-03T11:46:06.631Z,9.309005
2022-08-03T11:47:06.571Z,9.309033
2022-08-03T11:48:06.547Z,9.308947
2022-08-03T11:49:10.403Z,9.308908
2022-08-03T11:50:07.547Z,9.309022
2022-08-03T11:51:06.523Z,9.309114
2022-08-03T11:52:06.559Z,9.309126
2022-08-03T11:53:06.527Z,9.308984
2022-08-03T11:54:06.491Z,9.309098
2022-08-03T11:55:06.478Z,9.309155
2022-08-03T11:56:06.448Z,9.309118
2022-08-03T11:57:07.423Z,9.309005
2022-08-03T11:59:17.274Z,9.308938
2022-08-03T11:59:19.974Z,9.309154
2022-08-03T12:00:07.395Z,9.309089
2022-08-03T12:01:06.403Z,9.309004
2022-08-03T12:02:06.342Z,9.309003
2022-08-03T12:03:06.438Z,9.309016
2022-08-03T12:04:06.358Z,9.308864
2022-08-03T12:05:06.373Z,9.309112
2022-08-03T12:06:06.714Z,9.309067
2022-08-03T12:07:06.347Z,9.309094
2022-08-03T12:08:06.873Z,9.308966
2022-08-03T12:09:07.425Z,9.309014
2022-08-03T12:10:06.326Z,9.309119
2022-08-03T12:11:06.441Z,9.309109
2022-08-03T12:12:06.445Z,9.309075
2022-08-03T12:14:32.970Z,9.309190
2022-08-03T12:14:49.050Z,9.309152
2022-08-03T12:15:07.300Z,9.309023
2022-08-03T12:16:06.381Z,9.308908
2022-08-03T12:17:06.456Z,9.308998
2022-08-03T12:18:07.291Z,9.309065
2022-08-03T12:19:06.379Z,9.309134
2022-08-03T12:20:06.362Z,9.309054
2022-08-03T12:21:06.414Z,9.309068
2022-08-03T12:22:06.367Z,9.308982
2022-08-03T12:23:06.329Z,9.309072
2022-08-03T12:24:06.292Z,9.308949
2022-08-03T12:25:06.356Z,9.308977
2022-08-03T12:26:06.292Z,9.309033
2022-08-03T12:27:06.319Z,9.309040
2022-08-03T12:28:06.324Z,9.309064
2022-08-03T12:29:07.187Z,9.308992
2022-08-03T12:30:06.298Z,9.309076
2022-08-03T12:31:06.258Z,9.309134
2022-08-03T12:32:06.284Z,9.309078
2022-08-03T12:33:06.317Z,9.309110
2022-08-03T12:34:06.245Z,9.309008
2022-08-03T12:35:06.254Z,9.309012
2022-08-03T12:36:07.246Z,9.309027
2022-08-03T12:37:21.897Z,9.309019
2022-08-03T12:38:07.237Z,9.309070
2022-08-03T12:39:06.243Z,9.309045
2022-08-03T12:40:10.186Z,9.309015
2022-08-03T12:41:08.224Z,9.309020
2022-08-03T12:42:06.213Z,9.309004
2022-08-03T12:43:06.198Z,9.309027
2022-08-03T12:44:06.300Z,9.309024
2022-08-03T12:45:06.166Z,9.309026
2022-08-03T12:46:06.182Z,9.309039
2022-08-03T12:47:06.171Z,9.309077
2022-08-03T12:48:06.136Z,9.309048
2022-08-03T12:49:06.252Z,9.309030
2022-08-03T12:50:06.172Z,9.309031
2022-08-03T12:51:06.120Z,9.309033
2022-08-03T12:52:07.720Z,9.309048
2022-08-03T12:53:09.038Z,9.309060
2022-08-03T12:54:06.116Z,9.309051
2022-08-03T12:55:06.174Z,9.309030
2022-08-03T12:56:06.388Z,9.308943
2022-08-03T12:57:05.978Z,9.308984
2022-08-03T12:58:06.008Z,9.309072
2022-08-03T12:59:05.977Z,9.309034
2022-08-03T13:00:06.065Z,9.309009
2022-08-03T13:01:09.526Z,9.308984
2022-08-03T13:02:09.618Z,9.308992
2022-08-03T13:03:38.226Z,9.308995
2022-08-03T13:04:07.989Z,9.308969
2022-08-03T13:05:05.945Z,9.308939
2022-08-03T13:06:06.036Z,9.308950
2022-08-03T13:07:06.532Z,9.308980
2022-08-03T13:08:06.948Z,9.309006
2022-08-03T13:09:05.903Z,9.309088
2022-08-03T13:10:08.146Z,9.309145
2022-08-03T13:11:07.005Z,9.309093
2022-08-03T13:12:05.911Z,9.309097
2022-08-03T13:13:05.913Z,9.309058
2022-08-03T13:14:05.978Z,9.309069
2022-08-03T13:15:05.988Z,9.309056
2022-08-03T13:16:06.006Z,9.308996
2022-08-03T13:17:05.978Z,9.309028
2022-08-03T13:18:06.001Z,9.309031
2022-08-03T13:19:05.951Z,9.308981
2022-08-03T13:20:06.934Z,9.309005
2022-08-03T13:21:06.032Z,9.309084
2022-08-03T13:22:06.025Z,9.309051
2022-08-03T13:23:06.051Z,9.309125
2022-08-03T13:24:06.889Z,9.309186
2022-08-03T13:25:05.955Z,9.309162
2022-08-03T13:26:05.979Z,9.309197
2022-08-03T13:28:02.149Z,9.309119
2022-08-03T13:28:09.944Z,9.309000
2022-08-03T13:29:07.956Z,9.309084
2022-08-03T13:30:05.957Z,9.309073
2022-08-03T13:31:05.981Z,9.309037
2022-08-03T13:32:05.992Z,9.309188
2022-08-03T13:33:06.065Z,9.309152
2022-08-03T13:34:05.944Z,9.309071
2022-08-03T13:35:06.013Z,9.309040
2022-08-03T13:36:05.850Z,9.309074
2022-08-03T13:37:09.444Z,9.308997
2022-08-03T13:38:07.870Z,9.309072
2022-08-03T13:39:05.870Z,9.309088
2022-08-03T13:40:05.975Z,9.309049
2022-08-03T13:41:05.854Z,9.309120
2022-08-03T13:42:06.790Z,9.309126
2022-08-03T13:43:05.912Z,9.309134
2022-08-03T13:44:26.607Z,9.309124
2022-08-03T13:45:07.839Z,9.309118
2022-08-03T13:46:05.824Z,9.309138
2022-08-03T13:47:05.850Z,9.309130
2022-08-03T13:48:06.885Z,9.309120
2022-08-03T13:49:05.731Z,9.309114
2022-08-03T13:50:05.792Z,9.309093
2022-08-03T13:51:21.682Z,9.309109
2022-08-03T13:52:07.689Z,9.309088
2022-08-03T13:53:05.749Z,9.309116
2022-08-03T13:54:05.787Z,9.309194
2022-08-03T13:55:05.821Z,9.309171
2022-08-03T13:56:05.674Z,9.309197
2022-08-03T13:58:07.557Z,9.309048
2022-08-03T13:58:18.927Z,9.309103
2022-08-03T13:59:06.731Z,9.309077
2022-08-03T14:00:05.676Z,9.309130
2022-08-03T14:01:05.765Z,9.309070
2022-08-03T14:02:05.844Z,9.309071
2022-08-03T14:03:14.512Z,9.309032
2022-08-03T14:04:06.693Z,9.309130
2022-08-03T14:05:06.650Z,9.309047
2022-08-03T14:06:05.703Z,9.309068
2022-08-03T14:07:05.751Z,9.309065
2022-08-03T14:08:05.882Z,9.309105
2022-08-03T14:09:05.602Z,9.309122
2022-08-03T14:10:05.629Z,9.309206
2022-08-03T14:11:05.670Z,9.309107
2022-08-03T14:12:08.720Z,9.309036
2022-08-03T14:13:05.686Z,9.309029
2022-08-03T14:14:05.649Z,9.309032
2022-08-03T14:15:05.962Z,9.309035
2022-08-03T14:16:05.652Z,9.309041
2022-08-03T14:17:05.699Z,9.309069
2022-08-03T14:18:05.649Z,9.309051
2022-08-03T14:19:05.617Z,9.309107
2022-08-03T14:20:13.868Z,9.309091
2022-08-03T14:21:07.420Z,9.309089
2022-08-03T14:22:07.010Z,9.309112
2022-08-03T14:23:05.635Z,9.309024
2022-08-03T14:24:05.626Z,9.309013
2022-08-03T14:25:05.590Z,9.309078
2022-08-03T14:26:05.634Z,9.309086
2022-08-03T14:27:09.338Z,9.309070
2022-08-03T14:28:06.550Z,9.309108
2022-08-03T14:29:05.691Z,9.309089
2022-08-03T14:30:05.514Z,9.309112
2022-08-03T14:31:08.223Z,9.309169
2022-08-03T14:32:11.315Z,9.309142
2022-08-03T14:33:06.552Z,9.309100
2022-08-03T14:34:05.515Z,9.309116
2022-08-03T14:35:06.593Z,9.309071
2022-08-03T14:36:05.503Z,9.309137
2022-08-03T14:37:05.576Z,9.309066
2022-08-03T14:38:05.478Z,9.309085
2022-08-03T14:39:05.511Z,9.309251
2022-08-03T14:40:05.578Z,9.309159